createdAt,value
2023-04-21T00:02:49.470Z,6.14
2023-04-21T00:05:52.129Z,6.16
2023-04-21T00:08:55.729Z,6.13
2023-04-21T00:11:57.333Z,6.08
2023-04-21T00:14:59.396Z,6.06
2023-04-21T00:18:05.213Z,6.05
2023-04-21T00:21:09.215Z,6.00
2023-04-21T00:24:11.480Z,6.00
2023-04-21T00:27:14.385Z,6.00
2023-04-21T00:30:18.149Z,5.97
2023-04-21T00:33:24.465Z,5.94
2023-04-21T00:36:28.646Z,5.94
2023-04-21T00:39:30.816Z,5.88
2023-04-21T00:42:32.446Z,5.85
2023-04-21T00:45:36.631Z,5.88
2023-04-21T00:48:39.351Z,5.84
2023-04-21T00:51:41.657Z,5.87
2023-04-21T00:54:46.523Z,5.84
2023-04-21T00:57:52.681Z,5.87
2023-04-21T01:00:54.481Z,5.83
2023-04-21T01:04:01.169Z,5.88
2023-04-21T01:07:07.475Z,5.86
2023-04-21T01:10:09.417Z,5.91
2023-04-21T01:13:11.636Z,5.93
2023-04-21T01:16:20.113Z,5.91
2023-04-21T01:19:25.074Z,5.88
2023-04-21T01:22:26.827Z,5.96
2023-04-21T01:25:29.403Z,5.93
2023-04-21T01:28:31.446Z,5.97
2023-04-21T01:31:33.109Z,5.95
2023-04-21T01:34:35.718Z,5.94
2023-04-21T01:37:39.802Z,5.99
2023-04-21T01:40:43.135Z,5.97
2023-04-21T01:43:45.735Z,6.00
2023-04-21T01:46:47.846Z,5.97
2023-04-21T01:49:49.761Z,5.99
2023-04-21T01:52:52.245Z,6.00
2023-04-21T01:55:53.977Z,6.02
2023-04-21T01:58:57.392Z,6.03
2023-04-21T02:02:00.623Z,6.03
2023-04-21T02:05:03.899Z,6.06
2023-04-21T02:08:07.385Z,6.04
2023-04-21T02:11:09.068Z,6.06
2023-04-21T02:14:11.077Z,6.07
2023-04-21T02:17:19.036Z,6.06
2023-04-21T02:20:21.105Z,6.03
2023-04-21T02:23:22.828Z,6.03
2023-04-21T02:26:25.200Z,6.00
2023-04-21T02:29:27.370Z,6.02
2023-04-21T02:32:29.777Z,6.00
2023-04-21T02:35:33.822Z,6.02
2023-04-21T02:38:35.940Z,6.04
2023-04-21T02:41:38.098Z,6.03
2023-04-21T02:44:40.529Z,6.02
2023-04-21T02:47:42.566Z,6.00
2023-04-21T02:50:44.643Z,5.97
2023-04-21T02:53:47.649Z,5.99
2023-04-21T02:56:49.677Z,5.96
2023-04-21T02:59:51.469Z,5.95
2023-04-21T03:02:53.591Z,5.94
2023-04-21T03:06:01.208Z,5.92
2023-04-21T03:09:03.694Z,5.94
2023-04-21T03:12:05.480Z,5.90
2023-04-21T03:15:08.680Z,5.90
2023-04-21T03:18:11.570Z,5.85
2023-04-21T03:21:14.104Z,5.85
2023-04-21T03:24:18.527Z,5.81
2023-04-21T03:27:20.955Z,5.80
2023-04-21T03:30:26.485Z,5.72
2023-04-21T03:33:28.456Z,5.73
2023-04-21T03:36:31.536Z,5.67
2023-04-21T03:39:34.798Z,5.67
2023-04-21T03:42:38.762Z,5.62
2023-04-21T03:45:40.655Z,5.58
2023-04-21T03:48:42.515Z,5.58
2023-04-21T03:51:44.733Z,5.51
2023-04-21T03:54:47.113Z,5.50
2023-04-21T03:57:49.980Z,5.48
2023-04-21T04:00:52.815Z,5.42
2023-04-21T04:03:54.684Z,5.39
2023-04-21T04:06:57.531Z,5.37
2023-04-21T04:10:00.996Z,5.33
2023-04-21T04:13:03.551Z,5.35
2023-04-21T04:16:06.054Z,5.35
2023-04-21T04:19:08.010Z,5.36
2023-04-21T04:22:11.276Z,5.37
2023-04-21T04:25:15.409Z,5.37
2023-04-21T04:28:18.865Z,5.38
2023-04-21T04:31:21.532Z,5.33
2023-04-21T04:34:23.714Z,5.40
2023-04-21T04:37:28.369Z,5.37
2023-04-21T04:40:31.060Z,5.42
2023-04-21T04:43:33.874Z,5.42
2023-04-21T04:46:36.859Z,5.43
2023-04-21T04:49:39.420Z,5.40
2023-04-21T04:52:46.862Z,5.48
2023-04-21T04:55:51.320Z,5.45
2023-04-21T04:58:53.504Z,5.51
2023-04-21T05:01:55.798Z,5.54
2023-04-21T05:05:01.547Z,5.54
2023-04-21T05:08:04.071Z,5.56
2023-04-21T05:11:07.010Z,5.57
2023-04-21T05:14:10.504Z,5.56
2023-04-21T05:17:12.968Z,5.55
2023-04-21T05:20:16.564Z,5.58
2023-04-21T05:23:19.303Z,5.46
2023-04-21T05:26:20.957Z,5.43
2023-04-21T05:29:22.643Z,5.53
2023-04-21T05:32:24.913Z,5.54
2023-04-21T05:35:30.776Z,5.58
2023-04-21T05:38:35.056Z,5.60
2023-04-21T05:41:39.235Z,5.59
2023-04-21T05:44:41.932Z,5.61
2023-04-21T05:47:44.459Z,5.62
2023-04-21T05:50:46.632Z,5.61
2023-04-21T05:53:49.806Z,5.63
2023-04-21T05:56:53.005Z,5.65
2023-04-21T05:59:54.711Z,5.64
2023-04-21T06:02:59.884Z,5.60
2023-04-21T06:06:05.307Z,5.63
2023-04-21T06:09:08.020Z,5.61
2023-04-21T06:12:12.039Z,5.60
2023-04-21T06:15:14.120Z,5.58
2023-04-21T06:18:17.000Z,5.60
2023-04-21T06:21:19.749Z,5.70
2023-04-21T06:24:25.467Z,5.70
2023-04-21T06:27:29.410Z,5.73
2023-04-21T06:30:31.587Z,5.74
2023-04-21T06:33:33.605Z,5.79
2023-04-21T06:36:36.028Z,5.81
2023-04-21T06:39:39.051Z,5.90
2023-04-21T06:42:42.057Z,5.94
2023-04-21T06:45:45.525Z,5.98
2023-04-21T06:48:47.621Z,6.01
2023-04-21T06:51:49.374Z,6.01
2023-04-21T06:54:52.682Z,6.09
2023-04-21T06:57:56.197Z,6.15
2023-04-21T07:00:59.175Z,6.16
2023-04-21T07:04:04.994Z,6.15
2023-04-21T07:07:08.112Z,6.27
2023-04-21T07:10:11.093Z,6.30
2023-04-21T07:13:13.473Z,6.35
2023-04-21T07:16:17.129Z,6.41
2023-04-21T07:19:19.728Z,6.42
2023-04-21T07:22:24.730Z,6.47
2023-04-21T07:25:26.830Z,6.48
2023-04-21T07:28:29.340Z,6.50
2023-04-21T07:31:32.400Z,6.55
2023-04-21T07:34:34.224Z,6.65
2023-04-21T07:37:36.359Z,6.69
2023-04-21T07:40:39.650Z,6.79
2023-04-21T07:43:41.625Z,6.80
2023-04-21T07:46:44.882Z,6.92
2023-04-21T07:49:46.571Z,6.98
2023-04-21T07:52:48.384Z,7.09
2023-04-21T07:55:50.556Z,7.16
2023-04-21T07:58:52.213Z,7.15
2023-04-21T08:01:54.785Z,7.23
2023-04-21T08:04:58.105Z,7.31
2023-04-21T08:08:04.039Z,7.42
2023-04-21T08:11:07.373Z,7.47
2023-04-21T08:14:11.987Z,7.63
2023-04-21T08:17:14.721Z,7.73
2023-04-21T08:20:16.394Z,7.91
2023-04-21T08:23:20.189Z,8.04
2023-04-21T08:26:24.107Z,8.17
2023-04-21T08:29:26.574Z,8.24
2023-04-21T08:32:28.892Z,8.37
2023-04-21T08:35:31.560Z,8.44
2023-04-21T08:38:43.083Z,8.53
2023-04-21T08:41:48.748Z,8.67
2023-04-21T08:44:50.952Z,8.77
2023-04-21T08:47:55.091Z,8.84
2023-04-21T08:50:58.052Z,8.97
2023-04-21T08:54:00.109Z,9.04
2023-04-21T08:57:14.106Z,9.24
2023-04-21T09:00:16.816Z,9.37
2023-04-21T09:03:26.326Z,9.53
2023-04-21T09:06:43.813Z,9.73
2023-04-21T09:09:56.581Z,9.84
2023-04-21T09:12:59.124Z,9.95
2023-04-21T09:16:08.594Z,10.06
2023-04-21T09:19:17.794Z,10.09
2023-04-21T09:22:20.550Z,10.20
2023-04-21T09:25:23.610Z,10.24
2023-04-21T09:28:32.588Z,10.25
2023-04-21T09:31:36.674Z,10.28
2023-04-21T09:34:42.923Z,10.28
2023-04-21T09:37:44.678Z,10.24
2023-04-21T09:40:47.187Z,10.29
2023-04-21T09:43:49.820Z,10.34
2023-04-21T09:47:01.523Z,10.38
2023-04-21T09:53:15.947Z,10.47
2023-04-21T09:56:23.655Z,10.52
2023-04-21T09:59:29.282Z,10.63
2023-04-21T10:02:33.892Z,10.73
2023-04-21T10:05:37.292Z,10.89
2023-04-21T10:08:42.759Z,11.01
2023-04-21T10:11:45.098Z,11.11
2023-04-21T10:14:51.331Z,11.18
2023-04-21T10:17:53.685Z,11.25
2023-04-21T10:21:08.542Z,11.33
2023-04-21T10:24:14.463Z,11.39
2023-04-21T10:27:35.088Z,11.49
2023-04-21T10:30:37.309Z,11.59
2023-04-21T10:33:41.065Z,11.69
2023-04-21T10:36:47.467Z,11.79
2023-04-21T10:39:55.505Z,11.79
2023-04-21T10:42:57.551Z,11.84
2023-04-21T10:45:59.606Z,11.86
2023-04-21T10:49:17.452Z,11.89
2023-04-21T10:52:20.909Z,11.92
2023-04-21T10:55:27.054Z,11.94
2023-04-21T10:58:28.838Z,12.02
2023-04-21T11:01:33.472Z,12.07
2023-04-21T11:04:36.236Z,12.20
2023-04-21T11:07:38.655Z,12.28
2023-04-21T11:10:55.684Z,12.38
2023-04-21T11:14:03.475Z,12.48
2023-04-21T11:17:12.085Z,12.48
2023-04-21T11:20:13.963Z,12.56
2023-04-21T11:23:19.420Z,12.65
2023-04-21T11:26:35.090Z,12.75
2023-04-21T11:29:44.837Z,12.85
2023-04-21T11:32:56.430Z,12.99
2023-04-21T11:36:00.683Z,13.10
2023-04-21T11:39:10.919Z,13.21
2023-04-21T11:42:25.253Z,13.28
2023-04-21T11:45:29.030Z,13.39
2023-04-21T11:48:30.685Z,13.49
2023-04-21T11:51:44.559Z,13.59
2023-04-21T11:54:47.085Z,13.62
2023-04-21T11:57:53.799Z,13.71
2023-04-21T12:00:55.573Z,13.76
2023-04-21T12:03:57.546Z,13.72
2023-04-21T12:07:02.267Z,13.77
2023-04-21T12:10:17.949Z,13.84
2023-04-21T12:13:23.751Z,13.89
2023-04-21T12:16:28.950Z,13.97
2023-04-21T12:19:37.685Z,14.01
2023-04-21T12:22:49.084Z,14.07
2023-04-21T12:25:54.565Z,14.12
2023-04-21T12:28:57.013Z,14.23
2023-04-21T12:31:59.935Z,14.25
2023-04-21T12:35:02.311Z,14.28
2023-04-21T12:38:04.894Z,14.31
2023-04-21T12:41:08.564Z,14.35
2023-04-21T12:44:11.060Z,14.43
2023-04-21T12:47:13.437Z,14.50
2023-04-21T12:50:16.214Z,14.58
2023-04-21T12:53:17.795Z,14.66
2023-04-21T12:56:20.287Z,14.67
2023-04-21T12:59:21.926Z,14.79
2023-04-21T13:02:24.176Z,14.87
2023-04-21T13:05:26.703Z,14.94
2023-04-21T13:08:28.602Z,15.02
2023-04-21T13:11:31.350Z,15.12
2023-04-21T13:14:33.053Z,15.29
2023-04-21T13:17:34.953Z,15.50
2023-04-21T13:20:37.200Z,15.89
2023-04-21T13:23:39.311Z,16.17
2023-04-21T13:26:41.534Z,16.49
2023-04-21T13:29:43.574Z,16.78
2023-04-21T13:32:46.269Z,17.08
2023-04-21T13:35:48.492Z,17.39
2023-04-21T13:38:53.815Z,17.66
2023-04-21T13:41:56.765Z,17.93
2023-04-21T13:45:01.229Z,18.22
2023-04-21T13:48:03.897Z,18.56
2023-04-21T13:51:06.581Z,18.91
2023-04-21T13:54:08.161Z,19.14
2023-04-21T13:57:10.688Z,19.34
2023-04-21T14:00:14.245Z,19.37
2023-04-21T14:03:16.685Z,19.38
2023-04-21T14:06:18.604Z,19.34
2023-04-21T14:09:22.489Z,19.47
2023-04-21T14:12:26.286Z,19.66
2023-04-21T14:15:30.723Z,19.71
2023-04-21T14:18:33.778Z,19.36
2023-04-21T14:21:36.714Z,19.61
2023-04-21T14:24:39.274Z,19.95
2023-04-21T14:27:41.089Z,20.30
2023-04-21T14:30:43.858Z,20.62
2023-04-21T14:33:46.093Z,20.71
2023-04-21T14:39:53.848Z,20.47
2023-04-21T14:42:55.989Z,20.71
2023-04-21T14:45:58.301Z,20.99
2023-04-21T14:49:03.922Z,21.22
2023-04-21T14:52:10.654Z,21.30
2023-04-21T14:55:14.792Z,21.45
2023-04-21T14:58:17.029Z,21.50
2023-04-21T15:01:24.514Z,21.73
2023-04-21T15:04:29.530Z,21.98
2023-04-21T15:07:35.413Z,22.32
2023-04-21T15:10:37.140Z,22.27
2023-04-21T15:13:40.541Z,22.13
2023-04-21T15:16:42.656Z,22.45
2023-04-21T15:19:45.147Z,22.92
2023-04-21T15:22:47.274Z,23.27
2023-04-21T15:25:49.018Z,23.50
2023-04-21T15:28:51.802Z,23.71
2023-04-21T15:31:54.708Z,23.83
2023-04-21T15:34:57.095Z,23.82
2023-04-21T15:37:59.274Z,23.97
2023-04-21T15:41:05.103Z,23.94
2023-04-21T15:44:07.378Z,23.93
2023-04-21T15:47:10.953Z,24.02
2023-04-21T15:50:13.995Z,23.95
2023-04-21T15:53:20.128Z,23.31
2023-04-21T15:56:26.411Z,22.79
2023-04-21T15:59:28.947Z,22.55
2023-04-21T16:02:33.139Z,22.49
2023-04-21T16:05:36.303Z,22.46
2023-04-21T16:08:40.223Z,22.24
2023-04-21T16:11:42.746Z,22.18
2023-04-21T16:14:57.634Z,22.08
2023-04-21T16:21:25.204Z,21.69
2023-04-21T16:24:27.351Z,21.37
2023-04-21T16:27:29.426Z,21.23
2023-04-21T16:30:31.466Z,21.08
2023-04-21T16:33:35.567Z,20.78
2023-04-21T16:36:37.733Z,20.41
2023-04-21T16:39:40.229Z,20.15
2023-04-21T16:42:42.529Z,20.06
2023-04-21T16:45:45.793Z,20.02
2023-04-21T16:48:49.149Z,20.07
2023-04-21T16:51:51.215Z,20.06
2023-04-21T16:54:55.501Z,20.00
2023-04-21T16:57:59.706Z,19.98
2023-04-21T17:01:01.466Z,19.87
2023-04-21T17:04:03.186Z,19.77
2023-04-21T17:07:07.210Z,19.66
2023-04-21T17:10:10.328Z,19.55
2023-04-21T17:13:11.878Z,19.42
2023-04-21T17:16:14.139Z,19.28
2023-04-21T17:19:16.246Z,19.13
2023-04-21T17:22:18.437Z,19.00
2023-04-21T17:25:21.624Z,18.84
2023-04-21T17:28:23.812Z,18.70
2023-04-21T17:31:29.785Z,18.58
2023-04-21T17:34:31.785Z,18.46
2023-04-21T17:37:34.932Z,18.27
2023-04-21T17:40:37.703Z,18.11
2023-04-21T17:43:40.069Z,17.94
2023-04-21T17:46:43.411Z,17.77
2023-04-21T17:49:45.889Z,17.60
2023-04-21T17:52:47.483Z,17.42
2023-04-21T17:55:49.855Z,17.29
2023-04-21T17:58:52.484Z,17.14
2023-04-21T18:01:55.095Z,16.97
2023-04-21T18:04:57.909Z,16.81
2023-04-21T18:08:01.446Z,16.63
2023-04-21T18:11:03.580Z,16.48
2023-04-21T18:14:05.685Z,16.29
2023-04-21T18:17:09.405Z,16.13
2023-04-21T18:20:14.961Z,15.92
2023-04-21T18:23:16.612Z,15.81
2023-04-21T18:26:19.277Z,15.65
2023-04-21T18:29:21.525Z,15.49
2023-04-21T18:32:23.707Z,15.37
2023-04-21T18:35:26.000Z,15.22
2023-04-21T18:38:27.555Z,15.09
2023-04-21T18:41:29.651Z,14.94
2023-04-21T18:44:31.390Z,14.81
2023-04-21T18:47:34.842Z,14.67
2023-04-21T18:50:40.133Z,14.55
2023-04-21T18:53:44.472Z,14.38
2023-04-21T18:56:49.597Z,14.27
2023-04-21T18:59:52.482Z,14.23
2023-04-21T19:02:55.096Z,14.15
2023-04-21T19:05:57.218Z,14.06
2023-04-21T19:08:59.286Z,13.98
2023-04-21T19:12:00.878Z,13.89
2023-04-21T19:15:05.295Z,13.82
2023-04-21T19:18:07.999Z,13.73
2023-04-21T19:21:13.409Z,13.66
2023-04-21T19:24:15.993Z,13.54
2023-04-21T19:27:18.158Z,13.48
2023-04-21T19:30:20.251Z,13.39
2023-04-21T19:33:21.859Z,13.35
2023-04-21T19:36:24.764Z,13.29
2023-04-21T19:39:30.521Z,13.14
2023-04-21T19:42:32.119Z,13.06
2023-04-21T19:45:34.444Z,12.94
2023-04-21T19:48:37.175Z,12.88
2023-04-21T19:51:39.828Z,12.82
2023-04-21T19:54:42.937Z,12.73
2023-04-21T19:57:45.517Z,12.67
2023-04-21T20:00:47.249Z,12.62
2023-04-21T20:03:50.236Z,12.59
2023-04-21T20:06:52.685Z,12.53
2023-04-21T20:09:55.401Z,12.50
2023-04-21T20:12:57.311Z,12.45
2023-04-21T20:15:59.415Z,12.42
2023-04-21T20:19:01.251Z,12.36
2023-04-21T20:22:02.866Z,12.36
2023-04-21T20:25:07.125Z,12.35
2023-04-21T20:28:09.625Z,12.33
2023-04-21T20:31:11.405Z,12.34
2023-04-21T20:34:13.503Z,12.32
2023-04-21T20:37:16.208Z,12.33
2023-04-21T20:40:18.770Z,12.33
2023-04-21T20:43:21.386Z,12.33
2023-04-21T20:46:24.207Z,12.31
2023-04-21T20:49:27.871Z,12.28
2023-04-21T20:52:32.908Z,12.23
2023-04-21T20:55:35.704Z,12.24
2023-04-21T20:58:38.886Z,12.23
2023-04-21T21:01:43.725Z,12.19
2023-04-21T21:04:47.204Z,12.12
2023-04-21T21:07:49.874Z,12.04
2023-04-21T21:10:51.961Z,12.04
2023-04-21T21:13:54.721Z,12.00
2023-04-21T21:16:58.564Z,11.96
2023-04-21T21:20:03.468Z,11.96
2023-04-21T21:23:07.888Z,11.92
2023-04-21T21:26:13.355Z,11.92
2023-04-21T21:29:18.993Z,11.86
2023-04-21T21:32:23.916Z,11.82
2023-04-21T21:35:26.435Z,11.75
2023-04-21T21:38:29.618Z,11.69
2023-04-21T21:41:33.201Z,11.64
2023-04-21T21:44:36.511Z,11.57
2023-04-21T21:47:43.950Z,11.47
2023-04-21T21:50:47.490Z,11.44
2023-04-21T21:53:49.065Z,11.34
2023-04-21T21:56:55.115Z,11.29
2023-04-21T22:00:11.772Z,11.23
2023-04-21T22:03:15.974Z,11.16
2023-04-21T22:06:18.590Z,11.12
2023-04-21T22:09:21.020Z,11.06
2023-04-21T22:12:26.985Z,11.03
2023-04-21T22:15:29.052Z,10.96
2023-04-21T22:18:31.820Z,10.92
2023-04-21T22:21:33.904Z,10.88
2023-04-21T22:24:38.823Z,10.82
2023-04-21T22:27:40.992Z,10.74
2023-04-21T22:30:44.622Z,10.72
2023-04-21T22:33:46.767Z,10.66
2023-04-21T22:36:50.503Z,10.60
2023-04-21T22:39:52.065Z,10.51
2023-04-21T22:42:54.824Z,10.49
2023-04-21T22:46:00.474Z,10.42
2023-04-21T22:49:03.858Z,10.39
2023-04-21T22:52:06.041Z,10.34
2023-04-21T22:55:09.674Z,10.30
2023-04-21T22:58:12.156Z,10.24
2023-04-21T23:01:16.752Z,10.18
2023-04-21T23:04:23.777Z,10.15
2023-04-21T23:07:26.831Z,10.08
2023-04-21T23:10:29.212Z,10.01
2023-04-21T23:13:35.728Z,9.97
2023-04-21T23:16:37.810Z,9.92
2023-04-21T23:19:39.973Z,9.82
2023-04-21T23:22:42.267Z,9.81
2023-04-21T23:25:46.650Z,9.74
2023-04-21T23:28:49.135Z,9.69
2023-04-21T23:31:51.203Z,9.66
2023-04-21T23:34:54.602Z,9.62
2023-04-21T23:37:56.434Z,9.57
2023-04-21T23:40:58.239Z,9.51
2023-04-21T23:44:02.611Z,9.47
2023-04-21T23:47:04.732Z,9.37
2023-04-21T23:50:08.291Z,9.36
2023-04-21T23:53:12.237Z,9.31
2023-04-21T23:56:14.679Z,9.33
2023-04-21T23:59:16.800Z,9.29
